sensor_id;sensor_type;location;lat;lon;timestamp;pressure;altitude;pressure_sealevel;temperature;humidity
84696;BME280;74913;40.204;44.532;2024-02-15T00:00:27;87659.31;;;10.43;55.52
84696;BME280;74913;40.204;44.532;2024-02-15T00:02:53;87659.16;;;10.28;56.48
84696;BME280;74913;40.204;44.532;2024-02-15T00:05:19;87652.97;;;10.20;56.11
84696;BME280;74913;40.204;44.532;2024-02-15T00:07:45;87652.50;;;10.08;56.65
84696;BME280;74913;40.204;44.532;2024-02-15T00:10:14;87656.97;;;9.93;58.05
84696;BME280;74913;40.204;44.532;2024-02-15T00:12:39;87665.22;;;9.95;57.34
84696;BME280;74913;40.204;44.532;2024-02-15T00:15:05;87656.97;;;9.93;56.87
84696;BME280;74913;40.204;44.532;2024-02-15T00:17:31;87636.75;;;9.79;56.92
84696;BME280;74913;40.204;44.532;2024-02-15T00:19:57;87643.88;;;9.89;56.69
84696;BME280;74913;40.204;44.532;2024-02-15T00:22:23;87653.56;;;9.92;57.26
84696;BME280;74913;40.204;44.532;2024-02-15T00:24:49;87652.84;;;9.92;58.24
84696;BME280;74913;40.204;44.532;2024-02-15T00:27:16;87645.00;;;9.94;56.64
84696;BME280;74913;40.204;44.532;2024-02-15T00:29:41;87645.00;;;9.94;56.87
84696;BME280;74913;40.204;44.532;2024-02-15T00:32:08;87644.16;;;9.99;56.17
84696;BME280;74913;40.204;44.532;2024-02-15T00:34:36;87640.19;;;10.00;56.40
84696;BME280;74913;40.204;44.532;2024-02-15T00:37:04;87649.09;;;9.95;56.71
84696;BME280;74913;40.204;44.532;2024-02-15T00:39:30;87641.28;;;9.97;56.71
84696;BME280;74913;40.204;44.532;2024-02-15T00:41:57;87641.66;;;10.01;55.89
84696;BME280;74913;40.204;44.532;2024-02-15T00:44:23;87640.19;;;10.00;55.92
84696;BME280;74913;40.204;44.532;2024-02-15T00:46:48;87632.38;;;10.02;55.74
84696;BME280;74913;40.204;44.532;2024-02-15T00:49:15;87623.88;;;9.98;55.75
84696;BME280;74913;40.204;44.532;2024-02-15T00:51:40;87626.66;;;10.05;56.09
84696;BME280;74913;40.204;44.532;2024-02-15T00:54:06;87638.13;;;10.06;56.56
84696;BME280;74913;40.204;44.532;2024-02-15T00:56:32;87628.63;;;10.05;56.09
84696;BME280;74913;40.204;44.532;2024-02-15T00:59:01;87632.75;;;10.06;55.50
84696;BME280;74913;40.204;44.532;2024-02-15T01:01:27;87627.50;;;10.00;56.43
84696;BME280;74913;40.204;44.532;2024-02-15T01:03:52;87636.09;;;10.12;54.70
84696;BME280;74913;40.204;44.532;2024-02-15T01:06:18;87628.78;;;10.20;55.25
84696;BME280;74913;40.204;44.532;2024-02-15T01:08:44;87645.16;;;10.22;55.10
84696;BME280;74913;40.204;44.532;2024-02-15T01:11:09;87649.25;;;10.23;54.98
84696;BME280;74913;40.204;44.532;2024-02-15T01:13:35;87641.06;;;10.28;54.60
84696;BME280;74913;40.204;44.532;2024-02-15T01:16:01;87642.00;;;10.31;54.37
84696;BME280;74913;40.204;44.532;2024-02-15T01:18:29;87647.03;;;10.35;54.30
84696;BME280;74913;40.204;44.532;2024-02-15T01:21:00;87649.59;;;10.40;54.41
84696;BME280;74913;40.204;44.532;2024-02-15T01:23:25;87648.94;;;10.47;53.77
84696;BME280;74913;40.204;44.532;2024-02-15T01:25:52;87652.22;;;10.53;53.38
84696;BME280;74913;40.204;44.532;2024-02-15T01:28:18;87654.06;;;10.58;53.16
84696;BME280;74913;40.204;44.532;2024-02-15T01:30:43;87654.13;;;10.66;53.27
84696;BME280;74913;40.204;44.532;2024-02-15T01:33:11;87651.31;;;10.71;53.49
84696;BME280;74913;40.204;44.532;2024-02-15T01:35:37;87651.72;;;10.75;53.05
84696;BME280;74913;40.204;44.532;2024-02-15T01:38:03;87659.78;;;10.75;53.96
84696;BME280;74913;40.204;44.532;2024-02-15T01:40:28;87674.50;;;10.74;52.85
84696;BME280;74913;40.204;44.532;2024-02-15T01:42:54;87663.72;;;10.74;53.04
84696;BME280;74913;40.204;44.532;2024-02-15T01:45:20;87674.28;;;10.72;52.92
84696;BME280;74913;40.204;44.532;2024-02-15T01:47:48;87662.81;;;10.72;53.13
84696;BME280;74913;40.204;44.532;2024-02-15T01:50:15;87652.22;;;10.53;53.14
84696;BME280;74913;40.204;44.532;2024-02-15T01:52:43;87688.97;;;10.71;53.64
84696;BME280;74913;40.204;44.532;2024-02-15T01:55:14;87686.69;;;10.75;53.07
84696;BME280;74913;40.204;44.532;2024-02-15T01:57:44;87693.91;;;10.80;53.88
84696;BME280;74913;40.204;44.532;2024-02-15T02:00:11;87683.88;;;10.81;53.08
84696;BME280;74913;40.204;44.532;2024-02-15T02:02:39;87691.63;;;10.84;52.72
84696;BME280;74913;40.204;44.532;2024-02-15T02:05:08;87687.16;;;10.87;52.81
84696;BME280;74913;40.204;44.532;2024-02-15T02:07:34;87693.44;;;10.89;53.23
84696;BME280;74913;40.204;44.532;2024-02-15T02:10:00;87692.38;;;10.92;53.18
84696;BME280;74913;40.204;44.532;2024-02-15T02:12:25;87693.66;;;10.91;54.05
84696;BME280;74913;40.204;44.532;2024-02-15T02:14:53;87694.38;;;10.92;53.43
84696;BME280;74913;40.204;44.532;2024-02-15T02:17:19;87694.56;;;10.94;54.14
84696;BME280;74913;40.204;44.532;2024-02-15T02:19:45;87683.75;;;10.86;53.97
84696;BME280;74913;40.204;44.532;2024-02-15T02:22:11;87685.16;;;10.87;54.94
84696;BME280;74913;40.204;44.532;2024-02-15T02:27:21;87694.44;;;10.79;55.67
84696;BME280;74913;40.204;44.532;2024-02-15T02:29:47;87701.47;;;10.82;56.46
84696;BME280;74913;40.204;44.532;2024-02-15T02:32:13;87699.94;;;10.73;56.56
84696;BME280;74913;40.204;44.532;2024-02-15T02:34:38;87702.25;;;10.69;57.09
84696;BME280;74913;40.204;44.532;2024-02-15T02:37:06;87712.78;;;10.67;57.62
84696;BME280;74913;40.204;44.532;2024-02-15T02:39:34;87701.75;;;10.58;57.96
84696;BME280;74913;40.204;44.532;2024-02-15T02:41:59;87722.97;;;10.61;57.77
84696;BME280;74913;40.204;44.532;2024-02-15T02:44:25;87715.75;;;10.56;57.59
84696;BME280;74913;40.204;44.532;2024-02-15T02:46:51;87723.19;;;10.50;57.91
84696;BME280;74913;40.204;44.532;2024-02-15T02:49:16;87720.13;;;10.46;58.27
84696;BME280;74913;40.204;44.532;2024-02-15T02:51:42;87716.31;;;10.42;57.91
84696;BME280;74913;40.204;44.532;2024-02-15T02:54:08;87715.16;;;10.37;58.37
84696;BME280;74913;40.204;44.532;2024-02-15T02:56:33;87723.38;;;10.32;59.24
84696;BME280;74913;40.204;44.532;2024-02-15T02:58:59;87724.41;;;10.28;59.53
84696;BME280;74913;40.204;44.532;2024-02-15T03:01:25;87726.19;;;10.26;59.97
84696;BME280;74913;40.204;44.532;2024-02-15T03:03:52;87725.56;;;10.20;60.37
84696;BME280;74913;40.204;44.532;2024-02-15T03:06:21;87730.75;;;10.18;60.71
84696;BME280;74913;40.204;44.532;2024-02-15T03:08:47;87738.06;;;10.17;60.75
84696;BME280;74913;40.204;44.532;2024-02-15T03:11:13;87739.63;;;10.13;60.33
84696;BME280;74913;40.204;44.532;2024-02-15T03:13:39;87736.94;;;10.13;60.38
84696;BME280;74913;40.204;44.532;2024-02-15T03:16:05;87737.03;;;10.07;61.30
84696;BME280;74913;40.204;44.532;2024-02-15T03:18:31;87737.38;;;10.04;60.58
84696;BME280;74913;40.204;44.532;2024-02-15T03:20:58;87735.19;;;10.02;62.24
84696;BME280;74913;40.204;44.532;2024-02-15T03:23:24;87738.41;;;10.01;61.50
84696;BME280;74913;40.204;44.532;2024-02-15T03:25:49;87735.31;;;9.97;61.68
84696;BME280;74913;40.204;44.532;2024-02-15T03:28:15;87732.41;;;9.95;61.33
84696;BME280;74913;40.204;44.532;2024-02-15T03:30:42;87732.63;;;9.97;61.32
84696;BME280;74913;40.204;44.532;2024-02-15T03:33:08;87727.47;;;9.86;61.26
84696;BME280;74913;40.204;44.532;2024-02-15T03:35:34;87721.69;;;9.82;62.07
84696;BME280;74913;40.204;44.532;2024-02-15T03:38:00;87714.47;;;9.77;62.04
84696;BME280;74913;40.204;44.532;2024-02-15T03:40:28;87718.56;;;9.78;61.64
84696;BME280;74913;40.204;44.532;2024-02-15T03:42:56;87709.69;;;9.83;62.13
84696;BME280;74913;40.204;44.532;2024-02-15T03:45:22;87708.47;;;9.84;62.20
84696;BME280;74913;40.204;44.532;2024-02-15T03:47:54;87712.19;;;9.81;62.12
84696;BME280;74913;40.204;44.532;2024-02-15T03:50:21;87710.41;;;9.70;63.40
84696;BME280;74913;40.204;44.532;2024-02-15T03:52:47;87706.22;;;9.61;63.19
84696;BME280;74913;40.204;44.532;2024-02-15T03:55:13;87710.66;;;9.59;63.13
84696;BME280;74913;40.204;44.532;2024-02-15T03:57:40;87703.72;;;9.50;64.14
84696;BME280;74913;40.204;44.532;2024-02-15T04:00:12;87693.91;;;9.40;65.21
84696;BME280;74913;40.204;44.532;2024-02-15T04:02:39;87704.13;;;9.28;65.40
84696;BME280;74913;40.204;44.532;2024-02-15T04:05:09;87708.25;;;9.16;65.99
84696;BME280;74913;40.204;44.532;2024-02-15T04:07:36;87714.66;;;9.13;65.71
84696;BME280;74913;40.204;44.532;2024-02-15T04:10:04;87715.38;;;9.14;65.28
84696;BME280;74913;40.204;44.532;2024-02-15T04:12:30;87709.28;;;9.13;64.88
84696;BME280;74913;40.204;44.532;2024-02-15T04:14:56;87712.59;;;9.19;64.54
84696;BME280;74913;40.204;44.532;2024-02-15T04:17:30;87725.91;;;9.25;64.51
84696;BME280;74913;40.204;44.532;2024-02-15T04:19:58;87730.97;;;9.28;64.36
84696;BME280;74913;40.204;44.532;2024-02-15T04:22:24;87740.69;;;9.31;64.38
84696;BME280;74913;40.204;44.532;2024-02-15T04:24:49;87747.50;;;9.32;64.34
84696;BME280;74913;40.204;44.532;2024-02-15T04:27:15;87766.06;;;9.30;63.98
84696;BME280;74913;40.204;44.532;2024-02-15T04:29:41;87775.06;;;9.33;64.14
84696;BME280;74913;40.204;44.532;2024-02-15T04:32:12;87782.19;;;9.30;63.64
84696;BME280;74913;40.204;44.532;2024-02-15T04:34:39;87790.22;;;9.30;63.45
84696;BME280;74913;40.204;44.532;2024-02-15T04:37:05;87790.03;;;9.28;64.32
84696;BME280;74913;40.204;44.532;2024-02-15T04:39:37;87784.03;;;9.35;63.33
84696;BME280;74913;40.204;44.532;2024-02-15T04:42:04;87795.00;;;9.50;63.21
84696;BME280;74913;40.204;44.532;2024-02-15T04:44:36;87798.63;;;9.53;63.73
84696;BME280;74913;40.204;44.532;2024-02-15T04:47:03;87800.09;;;9.54;63.18
84696;BME280;74913;40.204;44.532;2024-02-15T04:49:29;87799.34;;;9.53;63.55
84696;BME280;74913;40.204;44.532;2024-02-15T04:51:55;87809.78;;;9.57;62.26
84696;BME280;74913;40.204;44.532;2024-02-15T04:54:23;87812.81;;;9.66;62.26
84696;BME280;74913;40.204;44.532;2024-02-15T04:56:48;87806.38;;;9.69;61.73
84696;BME280;74913;40.204;44.532;2024-02-15T04:59:18;87806.81;;;9.74;61.61
84696;BME280;74913;40.204;44.532;2024-02-15T05:01:44;87811.56;;;9.81;61.43
84696;BME280;74913;40.204;44.532;2024-02-15T05:04:11;87804.34;;;9.89;61.65
84696;BME280;74913;40.204;44.532;2024-02-15T05:06:38;87788.03;;;9.87;61.78
84696;BME280;74913;40.204;44.532;2024-02-15T05:09:04;87796.69;;;9.93;61.19
84696;BME280;74913;40.204;44.532;2024-02-15T05:11:36;87800.00;;;9.99;61.56
84696;BME280;74913;40.204;44.532;2024-02-15T05:14:04;87794.41;;;10.10;61.62
84696;BME280;74913;40.204;44.532;2024-02-15T05:16:32;87785.22;;;10.18;60.15
84696;BME280;74913;40.204;44.532;2024-02-15T05:18:58;87784.59;;;10.25;60.50
84696;BME280;74913;40.204;44.532;2024-02-15T05:21:24;87765.25;;;10.27;60.11
84696;BME280;74913;40.204;44.532;2024-02-15T05:23:50;87772.69;;;10.34;61.02
84696;BME280;74913;40.204;44.532;2024-02-15T05:26:17;87753.25;;;10.28;59.95
84696;BME280;74913;40.204;44.532;2024-02-15T05:28:49;87756.75;;;10.36;60.57
84696;BME280;74913;40.204;44.532;2024-02-15T05:31:19;87732.66;;;10.30;60.08
84696;BME280;74913;40.204;44.532;2024-02-15T05:33:51;87751.38;;;10.36;59.73
84696;BME280;74913;40.204;44.532;2024-02-15T05:36:20;87755.06;;;10.46;59.83
84696;BME280;74913;40.204;44.532;2024-02-15T05:38:51;87771.38;;;10.61;59.21
84696;BME280;74913;40.204;44.532;2024-02-15T05:41:17;87768.22;;;10.70;58.85
84696;BME280;74913;40.204;44.532;2024-02-15T05:43:42;87764.13;;;10.90;58.44
84696;BME280;74913;40.204;44.532;2024-02-15T05:46:09;87762.41;;;11.00;58.42
84696;BME280;74913;40.204;44.532;2024-02-15T05:48:36;87767.28;;;11.02;57.39
84696;BME280;74913;40.204;44.532;2024-02-15T05:51:06;87768.28;;;11.12;58.06
84696;BME280;74913;40.204;44.532;2024-02-15T05:53:32;87765.84;;;11.21;57.76
84696;BME280;74913;40.204;44.532;2024-02-15T05:56:02;87766.28;;;11.33;57.46
84696;BME280;74913;40.204;44.532;2024-02-15T05:58:30;87766.03;;;11.44;56.94
84696;BME280;74913;40.204;44.532;2024-02-15T06:00:56;87765.41;;;11.58;56.62
84696;BME280;74913;40.204;44.532;2024-02-15T06:03:29;87763.38;;;11.72;56.25
84696;BME280;74913;40.204;44.532;2024-02-15T06:05:57;87779.06;;;11.81;55.60
84696;BME280;74913;40.204;44.532;2024-02-15T06:08:26;87783.22;;;11.82;55.30
84696;BME280;74913;40.204;44.532;2024-02-15T06:10:53;87795.81;;;11.87;55.22
84696;BME280;74913;40.204;44.532;2024-02-15T06:13:19;87788.66;;;11.90;55.45
84696;BME280;74913;40.204;44.532;2024-02-15T06:15:45;87792.28;;;11.92;55.08
84696;BME280;74913;40.204;44.532;2024-02-15T06:18:14;87800.34;;;11.92;55.70
84696;BME280;74913;40.204;44.532;2024-02-15T06:20:41;87803.06;;;11.92;55.55
84696;BME280;74913;40.204;44.532;2024-02-15T06:23:08;87803.06;;;11.92;54.98
84696;BME280;74913;40.204;44.532;2024-02-15T06:25:37;87816.66;;;11.87;55.17
84696;BME280;74913;40.204;44.532;2024-02-15T06:28:02;87821.13;;;11.84;55.81
84696;BME280;74913;40.204;44.532;2024-02-15T06:30:39;87828.34;;;11.89;55.17
84696;BME280;74913;40.204;44.532;2024-02-15T06:33:23;87835.19;;;11.90;55.94
84696;BME280;74913;40.204;44.532;2024-02-15T06:36:08;87838.94;;;11.87;55.50
84696;BME280;74913;40.204;44.532;2024-02-15T06:38:52;87846.13;;;11.85;56.01
84696;BME280;74913;40.204;44.532;2024-02-15T06:41:36;87852.03;;;11.83;56.25
84696;BME280;74913;40.204;44.532;2024-02-15T06:44:02;87849.69;;;11.80;55.88
84696;BME280;74913;40.204;44.532;2024-02-15T06:46:27;87850.72;;;11.77;56.53
84696;BME280;74913;40.204;44.532;2024-02-15T06:48:53;87849.31;;;11.83;56.39
84696;BME280;74913;40.204;44.532;2024-02-15T06:51:20;87832.44;;;11.83;56.01
84696;BME280;74913;40.204;44.532;2024-02-15T06:53:45;87848.63;;;12.11;55.34
84696;BME280;74913;40.204;44.532;2024-02-15T06:56:11;87848.53;;;12.24;55.16
84696;BME280;74913;40.204;44.532;2024-02-15T06:58:37;87846.44;;;12.38;55.30
84696;BME280;74913;40.204;44.532;2024-02-15T07:01:02;87845.09;;;12.52;54.83
84696;BME280;74913;40.204;44.532;2024-02-15T07:03:28;87847.69;;;12.65;54.77
84696;BME280;74913;40.204;44.532;2024-02-15T07:05:55;87841.56;;;12.64;54.49
84696;BME280;74913;40.204;44.532;2024-02-15T07:08:21;87841.72;;;12.59;53.93
84696;BME280;74913;40.204;44.532;2024-02-15T07:10:50;87841.34;;;12.55;53.79
84696;BME280;74913;40.204;44.532;2024-02-15T07:13:17;87830.69;;;12.49;53.80
84696;BME280;74913;40.204;44.532;2024-02-15T07:15:44;87827.47;;;12.51;53.66
84696;BME280;74913;40.204;44.532;2024-02-15T07:18:12;87839.88;;;12.54;53.96
84696;BME280;74913;40.204;44.532;2024-02-15T07:20:38;87830.56;;;12.55;53.61
84696;BME280;74913;40.204;44.532;2024-02-15T07:23:03;87835.78;;;12.60;54.15
84696;BME280;74913;40.204;44.532;2024-02-15T07:25:30;87834.75;;;12.71;53.62
84696;BME280;74913;40.204;44.532;2024-02-15T07:27:56;87843.47;;;12.92;54.02
84696;BME280;74913;40.204;44.532;2024-02-15T07:30:22;87838.34;;;13.09;53.26
84696;BME280;74913;40.204;44.532;2024-02-15T07:32:49;87832.81;;;13.22;53.32
84696;BME280;74913;40.204;44.532;2024-02-15T07:35:15;87824.16;;;13.31;52.61
84696;BME280;74913;40.204;44.532;2024-02-15T07:37:53;87833.19;;;13.49;51.87
84696;BME280;74913;40.204;44.532;2024-02-15T07:40:21;87822.22;;;13.55;52.45
84696;BME280;74913;40.204;44.532;2024-02-15T07:42:48;87829.63;;;13.62;52.07
84696;BME280;74913;40.204;44.532;2024-02-15T07:45:14;87831.75;;;13.56;51.96
84696;BME280;74913;40.204;44.532;2024-02-15T07:47:40;87834.66;;;13.42;51.48
84696;BME280;74913;40.204;44.532;2024-02-15T07:50:05;87827.94;;;13.36;52.31
84696;BME280;74913;40.204;44.532;2024-02-15T07:52:32;87833.91;;;13.34;51.61
84696;BME280;74913;40.204;44.532;2024-02-15T07:54:58;87829.56;;;13.31;51.96
84696;BME280;74913;40.204;44.532;2024-02-15T07:57:24;87825.63;;;13.32;51.91
84696;BME280;74913;40.204;44.532;2024-02-15T07:59:50;87821.50;;;13.46;51.99
84696;BME280;74913;40.204;44.532;2024-02-15T08:02:16;87822.75;;;13.53;52.15
84696;BME280;74913;40.204;44.532;2024-02-15T08:04:47;87823.31;;;13.67;51.85
84696;BME280;74913;40.204;44.532;2024-02-15T08:07:13;87813.06;;;13.73;50.94
84696;BME280;74913;40.204;44.532;2024-02-15T08:09:41;87808.72;;;13.77;51.34
84696;BME280;74913;40.204;44.532;2024-02-15T08:12:07;87797.91;;;13.77;51.42
84696;BME280;74913;40.204;44.532;2024-02-15T08:14:32;87804.75;;;13.71;50.92
84696;BME280;74913;40.204;44.532;2024-02-15T08:16:58;87798.63;;;13.63;51.39
84696;BME280;74913;40.204;44.532;2024-02-15T08:19:24;87802.41;;;13.60;51.53
84696;BME280;74913;40.204;44.532;2024-02-15T08:21:50;87799.16;;;13.54;51.21
84696;BME280;74913;40.204;44.532;2024-02-15T08:24:16;87796.44;;;13.46;50.94
84696;BME280;74913;40.204;44.532;2024-02-15T08:26:42;87797.16;;;13.46;51.18
84696;BME280;74913;40.204;44.532;2024-02-15T08:29:08;87793.22;;;13.47;50.86
84696;BME280;74913;40.204;44.532;2024-02-15T08:31:35;87780.25;;;13.61;51.25
84696;BME280;74913;40.204;44.532;2024-02-15T08:34:02;87761.16;;;13.74;51.06
84696;BME280;74913;40.204;44.532;2024-02-15T08:36:27;87766.53;;;13.89;50.70
84696;BME280;74913;40.204;44.532;2024-02-15T08:38:55;87712.16;;;13.47;50.76
84696;BME280;74913;40.204;44.532;2024-02-15T08:41:21;87769.81;;;13.73;50.28
84696;BME280;74913;40.204;44.532;2024-02-15T08:43:48;87767.63;;;13.64;51.00
84696;BME280;74913;40.204;44.532;2024-02-15T08:46:14;87764.19;;;13.56;50.53
84696;BME280;74913;40.204;44.532;2024-02-15T08:48:40;87751.78;;;13.53;51.14
84696;BME280;74913;40.204;44.532;2024-02-15T08:51:06;87742.59;;;13.56;50.37
84696;BME280;74913;40.204;44.532;2024-02-15T08:53:34;87750.69;;;13.71;50.39
84696;BME280;74913;40.204;44.532;2024-02-15T08:56:03;87739.34;;;13.87;50.06
84696;BME280;74913;40.204;44.532;2024-02-15T08:58:29;87745.97;;;14.09;49.98
84696;BME280;74913;40.204;44.532;2024-02-15T09:00:56;87724.63;;;14.28;49.61
84696;BME280;74913;40.204;44.532;2024-02-15T09:03:22;87720.31;;;14.25;49.37
84696;BME280;74913;40.204;44.532;2024-02-15T09:05:47;87733.31;;;14.34;48.59
84696;BME280;74913;40.204;44.532;2024-02-15T09:08:13;87728.94;;;14.46;48.99
84696;BME280;74913;40.204;44.532;2024-02-15T09:10:41;87723.84;;;14.58;49.00
84696;BME280;74913;40.204;44.532;2024-02-15T09:13:08;87727.44;;;14.60;48.51
84696;BME280;74913;40.204;44.532;2024-02-15T09:15:33;87722.75;;;14.53;47.76
84696;BME280;74913;40.204;44.532;2024-02-15T09:17:59;87727.13;;;14.49;48.43
84696;BME280;74913;40.204;44.532;2024-02-15T09:20:25;87715.56;;;14.48;48.69
84696;BME280;74913;40.204;44.532;2024-02-15T09:22:54;87722.09;;;14.45;48.67
84696;BME280;74913;40.204;44.532;2024-02-15T09:25:21;87716.69;;;14.45;48.26
84696;BME280;74913;40.204;44.532;2024-02-15T09:27:51;87710.16;;;14.48;47.96
84696;BME280;74913;40.204;44.532;2024-02-15T09:30:17;87706.94;;;14.42;48.08
84696;BME280;74913;40.204;44.532;2024-02-15T09:32:44;87704.38;;;14.52;48.18
84696;BME280;74913;40.204;44.532;2024-02-15T09:35:11;87711.53;;;14.64;48.19
84696;BME280;74913;40.204;44.532;2024-02-15T09:37:47;87715.47;;;14.71;47.48
84696;BME280;74913;40.204;44.532;2024-02-15T09:40:18;87718.00;;;14.69;48.25
84696;BME280;74913;40.204;44.532;2024-02-15T09:42:44;87732.03;;;14.83;47.11
84696;BME280;74913;40.204;44.532;2024-02-15T09:45:12;87716.97;;;14.97;47.44
84696;BME280;74913;40.204;44.532;2024-02-15T09:47:38;87718.59;;;15.00;47.20
84696;BME280;74913;40.204;44.532;2024-02-15T09:50:08;87706.34;;;14.91;47.18
84696;BME280;74913;40.204;44.532;2024-02-15T09:52:38;87682.22;;;14.78;47.01
84696;BME280;74913;40.204;44.532;2024-02-15T09:55:05;87700.56;;;14.95;46.90
84696;BME280;74913;40.204;44.532;2024-02-15T09:57:31;87689.03;;;14.87;46.55
84696;BME280;74913;40.204;44.532;2024-02-15T09:59:58;87693.84;;;14.96;46.75
84696;BME280;74913;40.204;44.532;2024-02-15T10:02:26;87653.81;;;14.62;45.50
84696;BME280;74913;40.204;44.532;2024-02-15T10:04:53;87681.53;;;14.77;46.22
84696;BME280;74913;40.204;44.532;2024-02-15T10:07:25;87672.84;;;14.79;46.58
84696;BME280;74913;40.204;44.532;2024-02-15T10:09:52;87694.84;;;15.15;46.13
84696;BME280;74913;40.204;44.532;2024-02-15T10:12:18;87702.81;;;15.38;46.07
84696;BME280;74913;40.204;44.532;2024-02-15T10:14:50;87699.44;;;15.55;44.93
84696;BME280;74913;40.204;44.532;2024-02-15T10:17:18;87664.53;;;15.34;44.96
84696;BME280;74913;40.204;44.532;2024-02-15T10:19:44;87702.38;;;15.49;45.30
84696;BME280;74913;40.204;44.532;2024-02-15T10:22:12;87704.59;;;15.43;45.41
84696;BME280;74913;40.204;44.532;2024-02-15T10:24:40;87694.16;;;15.32;45.03
84696;BME280;74913;40.204;44.532;2024-02-15T10:27:06;87674.09;;;15.10;44.94
84696;BME280;74913;40.204;44.532;2024-02-15T10:29:33;87698.28;;;15.08;45.22
84696;BME280;74913;40.204;44.532;2024-02-15T10:32:03;87698.69;;;15.05;44.98
84696;BME280;74913;40.204;44.532;2024-02-15T10:34:30;87698.34;;;15.01;45.31
84696;BME280;74913;40.204;44.532;2024-02-15T10:37:12;87704.16;;;14.97;44.67
84696;BME280;74913;40.204;44.532;2024-02-15T10:39:41;87707.09;;;14.84;45.65
84696;BME280;74913;40.204;44.532;2024-02-15T10:42:07;87706.78;;;14.80;45.54
84696;BME280;74913;40.204;44.532;2024-02-15T10:44:36;87702.75;;;14.89;45.14
84696;BME280;74913;40.204;44.532;2024-02-15T10:47:04;87686.75;;;15.08;44.72
84696;BME280;74913;40.204;44.532;2024-02-15T10:49:33;87701.38;;;15.37;44.32
84696;BME280;74913;40.204;44.532;2024-02-15T10:52:01;87670.09;;;15.36;43.75
84696;BME280;74913;40.204;44.532;2024-02-15T10:54:46;87650.19;;;15.41;42.34
84696;BME280;74913;40.204;44.532;2024-02-15T10:57:13;87683.44;;;15.66;43.58
84696;BME280;74913;40.204;44.532;2024-02-15T11:00:02;87686.78;;;15.57;42.03
84696;BME280;74913;40.204;44.532;2024-02-15T11:02:46;87677.13;;;15.39;42.39
84696;BME280;74913;40.204;44.532;2024-02-15T11:05:14;87685.88;;;15.30;43.63
84696;BME280;74913;40.204;44.532;2024-02-15T11:07:46;87680.31;;;15.28;43.79
84696;BME280;74913;40.204;44.532;2024-02-15T11:10:12;87672.91;;;15.21;43.79
84696;BME280;74913;40.204;44.532;2024-02-15T11:12:42;87672.28;;;15.13;44.16
84696;BME280;74913;40.204;44.532;2024-02-15T11:15:11;87670.31;;;15.06;43.87
84696;BME280;74913;40.204;44.532;2024-02-15T11:23:01;87663.81;;;14.76;44.76
84696;BME280;74913;40.204;44.532;2024-02-15T11:25:38;87687.59;;;14.86;44.66
84696;BME280;74913;40.204;44.532;2024-02-15T11:30:52;87685.81;;;14.81;44.76
84696;BME280;74913;40.204;44.532;2024-02-15T11:36:09;87669.16;;;14.59;44.56
84696;BME280;74913;40.204;44.532;2024-02-15T11:38:39;87687.56;;;14.53;44.88
84696;BME280;74913;40.204;44.532;2024-02-15T11:41:09;87689.63;;;14.45;44.91
84696;BME280;74913;40.204;44.532;2024-02-15T11:46:24;87687.84;;;14.40;44.67
84696;BME280;74913;40.204;44.532;2024-02-15T11:48:52;87632.34;;;14.17;44.84
84696;BME280;74913;40.204;44.532;2024-02-15T11:51:35;87658.06;;;14.40;44.59
84696;BME280;74913;40.204;44.532;2024-02-15T11:54:11;87666.63;;;14.61;44.06
84696;BME280;74913;40.204;44.532;2024-02-15T11:56:56;87650.25;;;14.52;44.09
84696;BME280;74913;40.204;44.532;2024-02-15T11:59:43;87685.13;;;14.80;43.79
84696;BME280;74913;40.204;44.532;2024-02-15T12:02:27;87691.16;;;14.96;44.10
84696;BME280;74913;40.204;44.532;2024-02-15T12:05:11;87676.34;;;14.97;43.87
84696;BME280;74913;40.204;44.532;2024-02-15T12:07:55;87692.81;;;15.16;43.72
84696;BME280;74913;40.204;44.532;2024-02-15T12:10:39;87694.13;;;15.15;43.61
84696;BME280;74913;40.204;44.532;2024-02-15T12:13:23;87696.41;;;15.18;43.86
84696;BME280;74913;40.204;44.532;2024-02-15T12:16:07;87675.16;;;15.15;43.94
84696;BME280;74913;40.204;44.532;2024-02-15T12:18:51;87687.31;;;15.31;43.93
84696;BME280;74913;40.204;44.532;2024-02-15T12:21:25;87693.22;;;15.37;43.49
84696;BME280;74913;40.204;44.532;2024-02-15T12:23:52;87682.59;;;15.31;43.51
84696;BME280;74913;40.204;44.532;2024-02-15T12:26:19;87668.53;;;15.33;43.65
84696;BME280;74913;40.204;44.532;2024-02-15T12:28:50;87682.56;;;15.39;42.90
84696;BME280;74913;40.204;44.532;2024-02-15T12:31:16;87681.28;;;15.40;42.96
84696;BME280;74913;40.204;44.532;2024-02-15T12:33:43;87679.69;;;15.37;43.33
84696;BME280;74913;40.204;44.532;2024-02-15T12:36:09;87670.72;;;15.27;42.81
84696;BME280;74913;40.204;44.532;2024-02-15T12:38:35;87678.69;;;15.25;43.40
84696;BME280;74913;40.204;44.532;2024-02-15T12:41:20;87630.25;;;14.80;42.36
84696;BME280;74913;40.204;44.532;2024-02-15T12:43:46;87679.06;;;14.97;43.10
84696;BME280;74913;40.204;44.532;2024-02-15T12:46:12;87685.44;;;14.84;42.84
84696;BME280;74913;40.204;44.532;2024-02-15T12:48:38;87679.78;;;14.65;43.24
84696;BME280;74913;40.204;44.532;2024-02-15T12:51:15;87679.78;;;14.65;42.91
84696;BME280;74913;40.204;44.532;2024-02-15T12:53:42;87674.28;;;14.48;43.35
84696;BME280;74913;40.204;44.532;2024-02-15T12:56:08;87681.31;;;14.43;43.53
84696;BME280;74913;40.204;44.532;2024-02-15T12:58:36;87680.59;;;14.43;43.63
84696;BME280;74913;40.204;44.532;2024-02-15T13:01:04;87677.53;;;14.39;43.74
84696;BME280;74913;40.204;44.532;2024-02-15T13:03:29;87686.22;;;14.37;43.42
84696;BME280;74913;40.204;44.532;2024-02-15T13:05:55;87684.78;;;14.36;43.52
84696;BME280;74913;40.204;44.532;2024-02-15T13:08:22;87678.47;;;14.34;43.44
84696;BME280;74913;40.204;44.532;2024-02-15T13:10:47;87675.94;;;14.28;43.18
84696;BME280;74913;40.204;44.532;2024-02-15T13:13:13;87677.75;;;14.26;43.66